Terminal Aerodrome Forecast
Issued by NWS Jacksonville, FL

Home | Current Version | Previous Version | Text Only | Print | Product List | Glossary On
Versions: 1 2 3 4 5 6 7 8 9 10 11 12 13 14 15 16 17
259
FTUS42 KJAX 211123
TAFJAX
TAF
KJAX 211123Z 2112/2212 05012KT P6SM -SHRA SCT015 BKN025 BKN050
     FM211500 06014G22KT P6SM VCSH SCT015 OVC030
     FM212300 08012KT P6SM SCT030 OVC050=

USA.gov is the U.S. government's official web portal to all federal, state and local government web resources and services.